< < Back
Terminal Aerodrome Forecast


Current Version              Previous Versions:   1  2  3  4  5  6  7  8  9  

Terminal Aerodrome Forecast

871
FTUS42 KFFC 060331 AAB
TAFPDK
TAF AMD
KPDK 060331Z 0604/0624 33010KT P6SM SKC
     FM061300 32014G24KT P6SM SKC
     FM061500 34017G27KT P6SM FEW050=

Latest METAR

554
SAUS70 KWBC 060300 RRE
MTRPDK
METAR KPDK 060253Z AUTO 32011KT 10SM CLR 10/04 A2988 RMK AO2 SLP118
T01000039 51020


USA.gov is the U.S. government's official web portal to all federal, state and local government web resources and services.